Terminal Aerodrome Forecast
Issued by NWS

Home | Current Version | Previous Version | Text Only | Print | Product List | Glossary On
Versions: 1 2 3 4 5 6 7 8 9 10 11 12 13 14 15 16 17 18 19 20 21 22 23 24 25
168
FTUS46 KSGX 132330
TAFSAN
TAF
KSAN 132330Z 1400/1506 29006KT P6SM FEW004 SCT200
     FM140200 VRB04KT P6SM VCFG FEW004
     FM140400 VRB04KT 1SM BR VCFG BKN003
      TEMPO 1405/1408 1/2SM FG OVC002
     FM140800 VRB04KT 1/4SM FG VV001
     FM141300 VRB04KT 1SM BR BKN004
     FM141500 VRB04KT 3SM BR SCT004
     FM141600 29007KT P6SM SKC=

USA.gov is the U.S. government's official web portal to all federal, state and local government web resources and services.